Time;durP1;ratioP1;P1;durP2;ratioP2;P2;SDS_P1;SDS_P2;PMS_P1;PMS_P2;Temp;Humidity;BMP_temperature;BMP_pressure;BME280_temperature;BME280_humidity;BME280_pressure;Samples;Min_cycle;Max_cycle;Signal;HPM_P1;HPM_P2
2021/10/02 00:34:00;;;;;;;1999.90;999.90;;;;;;;8.61;46.96;100958.75;5021988;27;97367;-71
2021/10/02 00:36:54;;;;;;;1999.90;999.90;;;;;;;8.58;46.99;100956.00;5020580;27;97608;-71
2021/10/02 00:44:55;;;;;;;1999.90;999.90;;;;;;;8.53;47.06;100960.25;5030814;27;97511;-72
2021/10/02 00:47:25;;;;;;;1999.90;999.90;;;;;;;8.54;46.87;100955.84;5021493;27;98213;-71
2021/10/02 00:49:54;;;;;;;1999.90;999.90;;;;;;;8.53;46.95;100957.59;5020458;27;98220;-72
2021/10/02 00:52:22;;;;;;;1999.90;999.90;;;;;;;8.55;46.87;100961.19;5020497;27;97105;-71
2021/10/02 00:54:50;;;;;;;1999.90;999.90;;;;;;;8.54;46.96;100954.09;5023355;28;97253;-72
2021/10/02 00:57:19;;;;;;;1999.90;999.90;;;;;;;8.53;46.98;100952.28;5002978;28;99699;-71
2021/10/02 00:59:48;;;;;;;1999.90;999.90;;;;;;;8.50;46.83;100940.69;5021031;27;100793;-71
2021/10/02 01:02:20;;;;;;;1999.90;999.90;;;;;;;8.47;47.00;100945.84;5005400;28;96909;-71
2021/10/02 01:05:03;;;;;;;1999.90;999.90;;;;;;;8.44;47.23;100945.78;5021182;27;97446;-73
2021/10/02 01:07:35;;;;;;;1999.90;999.90;;;;;;;8.41;47.04;100940.34;5019921;27;99200;-70
2021/10/02 01:10:11;;;;;;;1999.90;999.90;;;;;;;8.40;47.44;100936.81;5020034;27;99068;-73
2021/10/02 01:12:50;;;;;;;1999.90;999.90;;;;;;;8.38;47.25;100933.22;5022287;27;98857;-73
2021/10/02 01:15:26;;;;;;;1999.90;999.90;;;;;;;8.36;47.38;100936.66;5023829;27;97272;-71
2021/10/02 01:17:56;;;;;;;1999.90;999.90;;;;;;;8.35;47.19;100933.09;5004224;28;100425;-74
2021/10/02 01:20:36;;;;;;;1999.90;999.90;;;;;;;8.31;47.56;100932.97;5018358;27;97168;-73
2021/10/02 01:23:18;;;;;;;1999.90;999.90;;;;;;;8.28;47.83;100931.09;5021570;27;96934;-73
2021/10/02 01:26:07;;;;;;;1999.90;999.90;;;;;;;8.26;47.95;100924.84;5019760;27;97666;-73
2021/10/02 01:28:38;;;;;;;1999.90;999.90;;;;;;;8.27;47.44;100912.50;5021371;27;99334;-70
2021/10/02 01:31:16;;;;;;;1999.90;999.90;;;;;;;8.27;47.62;100910.75;5020924;28;97695;-73
2021/10/02 01:33:50;;;;;;;1999.90;999.90;;;;;;;8.24;47.61;100916.84;5020424;27;97530;-73
2021/10/02 01:36:35;;;;;;;1999.90;999.90;;;;;;;8.23;47.74;100909.75;5022006;28;97364;-73
2021/10/02 01:47:29;;;;;;;1999.90;999.90;;;;;;;8.22;47.72;100913.25;5020734;27;97010;-72
2021/10/02 01:49:58;;;;;;;1999.90;999.90;;;;;;;8.20;47.92;100906.97;5021862;27;97672;-73
2021/10/02 01:52:29;;;;;;;1999.90;999.90;;;;;;;8.19;47.81;100922.84;5002406;28;99870;-73
2021/10/02 01:54:57;;;;;;;1999.90;999.90;;;;;;;8.18;47.60;100921.94;5030014;27;97146;-73
2021/10/02 01:57:29;;;;;;;1999.90;999.90;;;;;;;8.18;47.93;100924.59;5020490;27;97324;-72
2021/10/02 01:59:58;;;;;;;1999.90;999.90;;;;;;;8.18;48.09;100921.06;5022907;27;99475;-72
2021/10/02 02:02:26;;;;;;;1999.90;999.90;;;;;;;8.18;47.99;100921.94;5012875;27;99328;-72
2021/10/02 02:04:55;;;;;;;1999.90;999.90;;;;;;;8.17;47.96;100920.16;5001575;27;97135;-72
2021/10/02 02:07:24;;;;;;;1999.90;999.90;;;;;;;8.16;48.24;100913.06;5019385;27;97121;-73
2021/10/02 02:10:08;;;;;;;1999.90;999.90;;;;;;;8.15;48.37;100911.25;5020638;27;99576;-72
2021/10/02 02:12:41;;;;;;;1999.90;999.90;;;;;;;8.17;48.01;100909.56;5019679;28;97366;-72
2021/10/02 02:15:12;;;;;;;1999.90;999.90;;;;;;;8.18;48.04;100905.16;5020563;27;97425;-73
2021/10/02 02:17:54;;;;;;;1999.90;999.90;;;;;;;8.18;nan;100905.16;5019791;27;96881;-73
2021/10/02 02:20:39;;;;;;;1999.90;999.90;;;;;;;8.18;48.16;100906.03;5020934;27;97906;-72
2021/10/02 02:23:10;;;;;;;1999.90;999.90;;;;;;;8.18;48.16;100900.72;5000661;27;98825;-73
2021/10/02 02:25:38;;;;;;;1999.90;999.90;;;;;;;8.17;48.04;100893.66;5021494;28;97409;-72
2021/10/02 02:28:07;;;;;;;1999.90;999.90;;;;;;;8.18;48.04;100897.22;5002678;28;97529;-73
2021/10/02 02:30:37;;;;;;;1999.90;999.90;;;;;;;8.18;48.10;100897.22;5016268;28;99535;-72
2021/10/02 02:33:06;;;;;;;1999.90;999.90;;;;;;;8.18;48.15;100900.72;5018743;27;100345;-72
2021/10/02 02:35:34;;;;;;;1999.90;999.90;;;;;;;8.19;48.33;100902.56;5020435;28;97642;-73
2021/10/02 02:38:02;;;;;;;1999.90;999.90;;;;;;;8.21;48.19;100902.59;5018798;28;97325;-72
2021/10/02 02:40:30;;;;;;;1999.90;999.90;;;;;;;8.22;48.15;100893.81;5019093;27;97930;-72
2021/10/02 02:42:57;;;;;;;1999.90;999.90;;;;;;;8.21;48.10;100895.56;5020457;27;97882;-73
2021/10/02 02:45:25;;;;;;;1999.90;999.90;;;;;;;8.22;48.08;100897.34;5017594;27;96981;-73
2021/10/02 02:47:59;;;;;;;1999.90;999.90;;;;;;;8.22;48.38;100907.94;5018550;27;97366;-70
2021/10/02 02:50:28;;;;;;;1999.90;999.90;;;;;;;8.21;48.45;100900.84;5019281;27;99362;-72
2021/10/02 02:53:01;;;;;;;1999.90;999.90;;;;;;;8.20;48.55;100899.03;5021660;27;97514;-72
2021/10/02 02:55:32;;;;;;;1999.90;999.90;;;;;;;8.22;48.36;100904.41;5023190;27;96963;-71
2021/10/02 02:58:03;;;;;;;1999.90;999.90;;;;;;;8.21;48.40;100915.84;5024442;27;97657;-73
2021/10/02 03:00:32;;;;;;;1999.90;999.90;;;;;;;8.21;48.50;100919.41;5024460;27;98379;-73
2021/10/02 03:03:05;;;;;;;1999.90;999.90;;;;;;;8.21;48.68;100927.34;5021441;27;98885;-72
2021/10/02 03:05:34;;;;;;;1999.90;999.90;;;;;;;8.23;48.57;100927.41;5023368;27;97886;-73
2021/10/02 03:08:03;;;;;;;1999.90;999.90;;;;;;;8.24;48.42;100922.16;5008033;28;97270;-73
2021/10/02 03:10:32;;;;;;;1999.90;999.90;;;;;;;8.24;48.34;100911.53;5028936;27;100422;-73
2021/10/02 03:13:03;;;;;;;1999.90;999.90;;;;;;;8.26;48.71;100916.88;5024095;27;100914;-74
2021/10/02 03:15:32;;;;;;;1999.90;999.90;;;;;;;8.27;48.57;100915.16;5023409;27;97466;-73
2021/10/02 03:18:02;;;;;;;1999.90;999.90;;;;;;;8.26;48.54;100911.59;5021270;27;96976;-73
2021/10/02 03:20:30;;;;;;;1999.90;999.90;;;;;;;8.27;48.68;100912.50;5020281;27;99728;-73
2021/10/02 03:22:58;;;;;;;1999.90;999.90;;;;;;;8.27;48.34;100916.06;5023573;27;98942;-72
2021/10/02 03:25:27;;;;;;;1999.90;999.90;;;;;;;8.28;48.64;100912.53;5024808;27;96944;-73
2021/10/02 03:27:56;;;;;;;1999.90;999.90;;;;;;;8.28;48.70;100904.59;5021963;27;97894;-72
2021/10/02 03:30:24;;;;;;;1999.90;999.90;;;;;;;8.30;48.84;100904.63;5023099;27;97836;-73
2021/10/02 03:32:53;;;;;;;1999.90;999.90;;;;;;;8.31;48.79;100906.44;5023301;27;99315;-73
2021/10/02 03:35:22;;;;;;;1999.90;999.90;;;;;;;8.31;48.76;100898.50;5019716;27;97299;-73
2021/10/02 03:37:51;;;;;;;1999.90;999.90;;;;;;;8.32;49.09;100900.28;5024662;27;96876;-72
2021/10/02 03:40:19;;;;;;;1999.90;999.90;;;;;;;8.32;48.54;100895.88;5022411;27;97638;-72
2021/10/02 03:42:48;;;;;;;1999.90;999.90;;;;;;;8.33;48.61;100888.84;5023745;27;97827;-73
2021/10/02 03:45:20;;;;;;;1999.90;999.90;;;;;;;8.34;48.64;100890.63;5021148;27;97729;-73
2021/10/02 03:47:48;;;;;;;1999.90;999.90;;;;;;;8.33;48.75;100886.19;5020029;27;97037;-72
2021/10/02 03:50:17;;;;;;;1999.90;999.90;;;;;;;8.34;48.97;100880.94;5021867;27;98695;-72
2021/10/02 03:52:46;;;;;;;1999.90;999.90;;;;;;;8.34;48.88;100885.31;5021511;27;102568;-71
2021/10/02 03:55:15;;;;;;;1999.90;999.90;;;;;;;8.37;48.80;100880.13;5030528;27;97190;-71
2021/10/02 03:57:43;;;;;;;1999.90;999.90;;;;;;;8.35;49.19;100884.50;5023223;27;97317;-71
2021/10/02 04:00:12;;;;;;;1999.90;999.90;;;;;;;8.37;49.01;100880.13;5022736;27;99074;-71
2021/10/02 04:02:40;;;;;;;1999.90;999.90;;;;;;;8.35;48.99;100888.03;5007321;27;98565;-70
2021/10/02 04:05:09;;;;;;;1999.90;999.90;;;;;;;8.35;48.89;100892.44;5014456;27;97655;-70
2021/10/02 04:07:37;;;;;;;1999.90;999.90;;;;;;;8.35;48.95;100897.75;5019884;27;97222;-71
2021/10/02 04:10:08;;;;;;;1999.90;999.90;;;;;;;8.31;48.95;100903.81;5020968;27;96865;-72
2021/10/02 04:12:35;;;;;;;1999.90;999.90;;;;;;;8.31;49.20;100917.06;5024688;27;97724;-73
2021/10/02 04:15:04;;;;;;;1999.90;999.90;;;;;;;8.28;49.38;100914.31;5023990;27;97725;-72
2021/10/02 04:17:32;;;;;;;1999.90;999.90;;;;;;;8.23;49.34;100907.09;5024095;27;96906;-72
2021/10/02 04:20:00;;;;;;;1999.90;999.90;;;;;;;8.21;49.33;100911.47;5021524;27;98398;-71
2021/10/02 04:22:28;;;;;;;1999.90;999.90;;;;;;;8.23;49.51;100906.19;5017712;27;97648;-69
2021/10/02 04:24:56;;;;;;;1999.90;999.90;;;;;;;8.23;49.48;100904.47;5022191;27;97641;-71
2021/10/02 04:27:25;;;;;;;1999.90;999.90;;;;;;;8.23;49.52;100909.75;5021858;27;97464;-71
2021/10/02 04:29:53;;;;;;;1999.90;999.90;;;;;;;8.22;49.57;100913.25;5022379;28;99507;-71
2021/10/02 04:32:20;;;;;;;1999.90;999.90;;;;;;;8.23;49.49;100906.19;5021371;27;100544;-72
2021/10/02 04:34:48;;;;;;;1999.90;999.90;;;;;;;8.22;49.39;100901.75;5019054;27;96801;-74
2021/10/02 04:37:16;;;;;;;1999.90;999.90;;;;;;;8.24;49.37;100898.28;5018531;27;97656;-70
2021/10/02 04:39:44;;;;;;;1999.90;999.90;;;;;;;8.24;49.39;100894.72;5020361;28;100224;-71
2021/10/02 04:42:12;;;;;;;1999.90;999.90;;;;;;;8.24;49.79;100897.38;5017348;27;100411;-72
2021/10/02 04:44:41;;;;;;;1999.90;999.90;;;;;;;8.26;49.27;100897.47;5019579;28;97339;-71
2021/10/02 04:47:08;;;;;;;1999.90;999.90;;;;;;;8.26;49.54;100897.47;5021475;27;97670;-71
2021/10/02 04:49:36;;;;;;;1999.90;999.90;;;;;;;8.27;49.58;100899.25;5023102;27;97611;-71
2021/10/02 04:52:04;;;;;;;1999.90;999.90;;;;;;;8.26;49.46;100897.47;5019446;27;99276;-71
2021/10/02 04:54:32;;;;;;;1999.90;999.90;;;;;;;8.25;49.71;100880.63;5021896;27;97501;-71
2021/10/02 04:56:59;;;;;;;1999.90;999.90;;;;;;;8.24;49.69;100882.38;5023052;27;96859;-72
2021/10/02 04:59:27;;;;;;;1999.90;999.90;;;;;;;8.27;49.71;100888.63;5021354;27;99347;-72
2021/10/02 05:01:56;;;;;;;1999.90;999.90;;;;;;;8.27;49.84;100888.63;5003988;28;99370;-71
2021/10/02 05:04:24;;;;;;;1999.90;999.90;;;;;;;8.24;49.65;100893.00;5020840;27;97838;-72
2021/10/02 05:06:52;;;;;;;1999.90;999.90;;;;;;;8.25;49.68;100896.53;5021706;27;96886;-72
2021/10/02 05:09:20;;;;;;;1999.90;999.90;;;;;;;8.23;49.74;100904.47;5015896;27;99197;-71
2021/10/02 05:11:48;;;;;;;1999.90;999.90;;;;;;;8.22;49.60;100913.25;4995740;28;100647;-72
2021/10/02 05:14:15;;;;;;;1999.90;999.90;;;;;;;8.21;49.65;100908.81;5023085;27;97848;-72
2021/10/02 05:16:43;;;;;;;1999.90;999.90;;;;;;;8.21;49.98;100903.50;5023005;27;97406;-72
2021/10/02 05:19:12;;;;;;;1999.90;999.90;;;;;;;8.22;49.67;100912.38;5016991;27;99335;-71
2021/10/02 05:21:40;;;;;;;1999.90;999.90;;;;;;;8.22;49.98;100913.25;5018354;27;99329;-71
2021/10/02 05:24:08;;;;;;;1999.90;999.90;;;;;;;8.21;49.83;100911.47;5018616;27;98224;-70
2021/10/02 05:26:35;;;;;;;1999.90;999.90;;;;;;;8.21;49.97;100910.53;5023388;27;97659;-70
2021/10/02 05:29:03;;;;;;;1999.90;999.90;;;;;;;8.21;49.91;100913.19;5023798;27;100654;-71
2021/10/02 05:31:31;;;;;;;1999.90;999.90;;;;;;;8.21;50.06;100910.53;5022991;27;101468;-72
2021/10/02 05:33:59;;;;;;;1999.90;999.90;;;;;;;8.21;49.75;100900.84;5018752;27;99200;-71
2021/10/02 05:36:28;;;;;;;1999.90;999.90;;;;;;;8.22;50.00;100910.59;5016065;27;97279;-72
2021/10/02 05:38:56;;;;;;;1999.90;999.90;;;;;;;8.23;49.84;100899.16;5019112;27;100425;-71
2021/10/02 05:41:24;;;;;;;1999.90;999.90;;;;;;;8.23;49.90;100907.09;5021185;27;98786;-72
2021/10/02 05:43:52;;;;;;;1999.90;999.90;;;;;;;8.23;49.98;100915.06;5022563;28;97562;-70
2021/10/02 05:46:19;;;;;;;1999.90;999.90;;;;;;;8.24;50.04;100911.53;5022537;27;98037;-73
2021/10/02 05:48:47;;;;;;;1999.90;999.90;;;;;;;8.26;49.92;100913.38;5018563;28;98216;-73
2021/10/02 05:51:15;;;;;;;1999.90;999.90;;;;;;;8.24;49.95;100916.84;5020893;27;97593;-71
2021/10/02 05:53:44;;;;;;;1999.90;999.90;;;;;;;8.22;50.08;100913.25;5014173;27;97581;-73
2021/10/02 05:56:12;;;;;;;1999.90;999.90;;;;;;;8.22;50.13;100915.88;5019666;28;98176;-73
2021/10/02 05:58:40;;;;;;;1999.90;999.90;;;;;;;8.23;49.86;100907.09;5017975;27;100795;-73
2021/10/02 06:01:08;;;;;;;1999.90;999.90;;;;;;;8.24;49.96;100906.25;5019313;27;100591;-74
2021/10/02 06:03:36;;;;;;;1999.90;999.90;;;;;;;8.26;50.02;100910.72;5020383;28;97026;-74
2021/10/02 06:06:04;;;;;;;1999.90;999.90;;;;;;;8.24;49.91;100905.34;5019217;27;97824;-73
2021/10/02 06:08:32;;;;;;;1999.90;999.90;;;;;;;8.23;50.09;100914.16;5017069;27;97539;-73
2021/10/02 06:11:01;;;;;;;1999.90;999.90;;;;;;;8.22;50.02;100913.25;5020246;27;97758;-73
2021/10/02 06:13:32;;;;;;;1999.90;999.90;;;;;;;8.24;50.29;100906.25;5020446;27;97280;-73
2021/10/02 06:16:00;;;;;;;1999.90;999.90;;;;;;;8.24;50.48;100903.59;5020231;27;97302;-74
2021/10/02 06:18:28;;;;;;;1999.90;999.90;;;;;;;8.28;50.27;100911.66;5020009;27;98869;-73
2021/10/02 06:20:58;;;;;;;1999.90;999.90;;;;;;;8.36;49.85;100911.06;5019504;27;98923;-73
2021/10/02 06:23:27;;;;;;;1999.90;999.90;;;;;;;8.27;50.40;100910.75;5015570;28;98096;-74
2021/10/02 06:25:54;;;;;;;1999.90;999.90;;;;;;;8.27;50.43;100908.09;5019384;27;96884;-75
2021/10/02 06:28:23;;;;;;;1999.90;999.90;;;;;;;8.29;50.24;100902.84;5019810;27;98464;-73
2021/10/02 06:30:51;;;;;;;1999.90;999.90;;;;;;;8.30;50.29;100908.19;5019603;27;97606;-73
2021/10/02 06:33:19;;;;;;;1999.90;999.90;;;;;;;8.33;50.29;100902.09;5018573;28;96757;-74
2021/10/02 06:35:51;;;;;;;1999.90;999.90;;;;;;;8.33;50.24;100904.75;5019872;27;97708;-74
2021/10/02 06:38:19;;;;;;;1999.90;999.90;;;;;;;8.37;50.13;100901.34;5017065;28;97337;-74
2021/10/02 06:40:48;;;;;;;1999.90;999.90;;;;;;;8.39;50.20;100899.63;5016759;28;100667;-75
2021/10/02 06:43:17;;;;;;;1999.90;999.90;;;;;;;8.41;50.34;100903.22;5018183;27;97845;-73
2021/10/02 06:45:46;;;;;;;1999.90;999.90;;;;;;;8.46;50.34;100902.53;5017724;27;97921;-74
2021/10/02 06:48:13;;;;;;;1999.90;999.90;;;;;;;8.50;50.28;100909.75;5014559;28;98112;-75
2021/10/02 06:50:41;;;;;;;1999.90;999.90;;;;;;;8.56;50.38;100909.06;5016381;28;98629;-73
2021/10/02 06:53:09;;;;;;;1999.90;999.90;;;;;;;8.59;50.01;100912.69;5015116;28;96879;-72
2021/10/02 06:55:37;;;;;;;1999.90;999.90;;;;;;;8.64;50.20;100918.16;5018232;27;97129;-72
2021/10/02 06:58:07;;;;;;;1999.90;999.90;;;;;;;8.68;50.09;100914.72;5017093;27;97793;-74
2021/10/02 07:00:35;;;;;;;1999.90;999.90;;;;;;;8.72;50.03;100922.84;5018879;27;98872;-73
2021/10/02 07:03:04;;;;;;;1999.90;999.90;;;;;;;8.76;50.04;100921.19;5018877;28;97849;-73
2021/10/02 07:05:32;;;;;;;1999.90;999.90;;;;;;;8.80;50.17;100908.06;5019629;28;97517;-73
2021/10/02 07:08:00;;;;;;;1999.90;999.90;;;;;;;8.86;50.06;100910.00;5018410;27;98768;-73
2021/10/02 07:10:29;;;;;;;1999.90;999.90;;;;;;;8.89;50.08;100916.31;5018074;27;97617;-73
2021/10/02 07:12:58;;;;;;;1999.90;999.90;;;;;;;8.94;50.10;100914.69;5017631;27;97424;-73
2021/10/02 07:15:25;;;;;;;1999.90;999.90;;;;;;;8.98;49.93;100910.34;5019823;27;97076;-74
2021/10/02 07:17:53;;;;;;;1999.90;999.90;;;;;;;9.01;50.10;100899.81;5018399;27;97844;-74
2021/10/02 07:20:25;;;;;;;1999.90;999.90;;;;;;;9.08;49.86;100896.47;5018862;28;101050;-73
2021/10/02 07:22:52;;;;;;;1999.90;999.90;;;;;;;9.15;49.93;100901.16;5019065;27;96888;-73
2021/10/02 07:25:22;;;;;;;1999.90;999.90;;;;;;;9.20;49.88;100897.75;5017267;27;97425;-74
2021/10/02 07:27:50;;;;;;;1999.90;999.90;;;;;;;9.29;49.62;100905.06;5016873;27;97693;-73
2021/10/02 07:30:18;;;;;;;1999.90;999.90;;;;;;;9.38;49.56;100904.44;5017211;27;99319;-73
2021/10/02 07:32:46;;;;;;;1999.90;999.90;;;;;;;9.45;49.62;100909.03;5018161;27;97291;-74
2021/10/02 07:35:15;;;;;;;1999.90;999.90;;;;;;;9.53;49.50;100904.88;5016405;28;97139;-74
2021/10/02 07:37:44;;;;;;;1999.90;999.90;;;;;;;9.60;49.40;100897.13;5015360;28;99226;-74
2021/10/02 07:40:13;;;;;;;1999.90;999.90;;;;;;;9.67;49.46;100899.09;5015986;27;99099;-74
2021/10/02 07:42:45;;;;;;;1999.90;999.90;;;;;;;9.69;49.36;100905.34;5019146;27;97352;-74
2021/10/02 07:45:13;;;;;;;1999.90;999.90;;;;;;;9.75;49.42;100916.16;5022323;27;97354;-73
2021/10/02 07:47:43;;;;;;;1999.90;999.90;;;;;;;9.78;49.51;100916.22;5022502;27;98725;-74
2021/10/02 07:50:13;;;;;;;1999.90;999.90;;;;;;;9.82;49.42;100928.72;5020570;27;98548;-74
2021/10/02 07:52:44;;;;;;;1999.90;999.90;;;;;;;9.87;49.40;100928.84;5023708;27;97156;-73
2021/10/02 07:55:14;;;;;;;1999.90;999.90;;;;;;;9.91;49.24;100926.31;5023973;27;97390;-73
2021/10/02 07:57:44;;;;;;;1999.90;999.90;;;;;;;9.97;49.10;100929.09;5023073;27;98162;-74
2021/10/02 08:00:14;;;;;;;1999.90;999.90;;;;;;;10.03;49.24;100926.63;5019320;27;99293;-74
2021/10/02 08:02:43;;;;;;;1999.90;999.90;;;;;;;10.08;49.08;100921.44;5023794;27;97409;-74
2021/10/02 08:05:12;;;;;;;1999.90;999.90;;;;;;;10.14;48.97;100926.88;5018056;27;96990;-74
2021/10/02 08:07:42;;;;;;;1999.90;999.90;;;;;;;10.17;48.92;100917.22;5024173;27;97786;-74
2021/10/02 08:10:12;;;;;;;1999.90;999.90;;;;;;;10.21;48.94;100916.44;5020846;27;100214;-73
2021/10/02 08:12:41;;;;;;;1999.90;999.90;;;;;;;10.29;48.65;100899.75;5022816;27;97263;-74
2021/10/02 08:15:09;;;;;;;1999.90;999.90;;;;;;;10.38;48.77;100910.63;5020887;28;97428;-74
2021/10/02 08:17:39;;;;;;;1999.90;999.90;;;;;;;10.44;48.72;100905.50;5020559;27;99621;-73
2021/10/02 08:20:10;;;;;;;1999.90;999.90;;;;;;;10.49;48.63;100904.75;5019211;28;97660;-74
2021/10/02 08:22:39;;;;;;;1999.90;999.90;;;;;;;10.56;48.55;100912.00;5016224;27;96872;-73
2021/10/02 08:25:09;;;;;;;1999.90;999.90;;;;;;;10.63;48.23;100897.97;5019627;27;97240;-74
2021/10/02 08:27:38;;;;;;;1999.90;999.90;;;;;;;10.68;48.32;100901.66;5021347;27;99041;-73
2021/10/02 08:30:08;;;;;;;1999.90;999.90;;;;;;;10.73;48.26;100901.75;5021276;27;97568;-73
2021/10/02 08:32:36;;;;;;;1999.90;999.90;;;;;;;10.76;48.08;100901.78;5019744;27;96868;-73
2021/10/02 08:35:04;;;;;;;1999.90;999.90;;;;;;;10.78;48.12;100902.72;5021677;27;97244;-73
2021/10/02 08:37:31;;;;;;;1999.90;999.90;;;;;;;10.82;48.00;100915.25;5021051;27;98016;-74
2021/10/02 08:39:59;;;;;;;1999.90;999.90;;;;;;;10.86;47.86;100912.69;5021067;27;100792;-74
2021/10/02 08:42:28;;;;;;;1999.90;999.90;;;;;;;10.93;47.92;100908.41;5020030;27;97384;-73
2021/10/02 08:45:00;;;;;;;1999.90;999.90;;;;;;;10.96;47.64;100898.72;5020178;27;97304;-74
2021/10/02 08:47:28;;;;;;;1999.90;999.90;;;;;;;11.02;47.45;100897.94;5022706;27;97907;-72
2021/10/02 08:49:57;;;;;;;1999.90;999.90;;;;;;;11.09;47.30;100906.09;5021725;27;97749;-72
2021/10/02 08:52:25;;;;;;;1999.90;999.90;;;;;;;11.15;47.24;100905.31;5017506;27;97606;-72
2021/10/02 08:54:55;;;;;;;1999.90;999.90;;;;;;;11.20;47.07;100896.56;5021798;27;97154;-72
2021/10/02 08:57:25;;;;;;;1999.90;999.90;;;;;;;11.26;47.15;100898.44;5004839;28;99481;-72
2021/10/02 08:59:54;;;;;;;1999.90;999.90;;;;;;;11.30;47.24;100905.66;5022044;27;98937;-73
2021/10/02 09:02:25;;;;;;;1999.90;999.90;;;;;;;11.35;47.03;100885.34;5022111;27;97212;-73
2021/10/02 09:04:54;;;;;;;1999.90;999.90;;;;;;;11.38;46.90;100885.41;5022365;27;97314;-72
2021/10/02 09:07:23;;;;;;;1999.90;999.90;;;;;;;11.40;46.73;100881.00;5020415;27;98375;-73
2021/10/02 09:09:54;;;;;;;1999.90;999.90;;;;;;;11.43;46.81;100885.50;5002975;28;99433;-72
2021/10/02 09:12:22;;;;;;;1999.90;999.90;;;;;;;11.46;46.70;100875.78;5018268;27;97725;-73
2021/10/02 09:14:52;;;;;;;1999.90;999.90;;;;;;;11.50;46.78;100877.66;5021500;27;97916;-72
2021/10/02 09:17:21;;;;;;;1999.90;999.90;;;;;;;11.55;46.56;100875.97;5017927;28;98216;-70
2021/10/02 09:19:50;;;;;;;1999.90;999.90;;;;;;;11.59;46.57;100866.25;5020088;27;100987;-72
2021/10/02 09:22:21;;;;;;;1999.90;999.90;;;;;;;11.63;46.68;100885.00;5018477;28;97467;-73
2021/10/02 09:24:50;;;;;;;1999.90;999.90;;;;;;;11.68;46.63;100885.06;5001023;28;98597;-73
2021/10/02 09:27:20;;;;;;;1999.90;999.90;;;;;;;11.72;46.55;100885.19;5020207;27;97668;-73
2021/10/02 09:29:51;;;;;;;1999.90;999.90;;;;;;;11.76;46.50;100876.34;5019744;27;97721;-73
2021/10/02 09:32:21;;;;;;;1999.90;999.90;;;;;;;11.82;46.35;100863.13;5021712;27;97446;-72
2021/10/02 09:34:52;;;;;;;1999.90;999.90;;;;;;;11.89;46.19;100859.69;5018701;27;97224;-73
2021/10/02 09:37:24;;;;;;;1999.90;999.90;;;;;;;11.95;46.27;100858.91;5001220;28;100648;-74
2021/10/02 09:39:57;;;;;;;1999.90;999.90;;;;;;;12.01;46.39;100857.25;5020965;28;99135;-73
2021/10/02 09:42:29;;;;;;;1999.90;999.90;;;;;;;12.10;46.21;100864.50;5017989;27;97304;-75
2021/10/02 09:45:02;;;;;;;1999.90;999.90;;;;;;;12.17;45.90;100864.66;5022022;28;97702;-74
2021/10/02 09:47:30;;;;;;;1999.90;999.90;;;;;;;12.25;45.96;100871.88;5021298;28;97605;-75
2021/10/02 09:49:59;;;;;;;1999.90;999.90;;;;;;;12.32;45.93;100876.44;5020781;27;99774;-75
2021/10/02 09:52:29;;;;;;;1999.90;999.90;;;;;;;12.35;45.73;100887.13;5019854;27;97713;-71
2021/10/02 09:54:58;;;;;;;1999.90;999.90;;;;;;;12.40;45.66;100874.78;5020879;28;97093;-72
2021/10/02 09:57:26;;;;;;;1999.90;999.90;;;;;;;12.44;45.11;100868.59;5020151;27;98825;-73
2021/10/02 10:00:08;;;;;;;1999.90;999.90;;;;;;;12.41;45.36;100872.13;5019825;27;97527;-74
2021/10/02 10:02:41;;;;;;;1999.90;999.90;;;;;;;12.44;45.50;100876.59;5020389;28;98998;-73
2021/10/02 10:05:12;;;;;;;1999.90;999.90;;;;;;;12.48;45.51;100875.78;5019720;28;97024;-73
2021/10/02 10:07:39;;;;;;;1999.90;999.90;;;;;;;12.52;45.46;100867.84;5024022;27;97830;-72
2021/10/02 10:10:10;;;;;;;1999.90;999.90;;;;;;;12.58;45.50;100872.38;5024702;27;97491;-73
2021/10/02 10:12:41;;;;;;;1999.90;999.90;;;;;;;12.60;45.49;100855.50;5009622;28;97361;-73
2021/10/02 10:15:26;;;;;;;1999.90;999.90;;;;;;;12.62;45.35;100859.09;5024239;27;97821;-73
2021/10/02 10:17:54;;;;;;;1999.90;999.90;;;;;;;12.67;45.36;100859.16;5026538;27;97801;-75
2021/10/02 10:20:32;;;;;;;1999.90;999.90;;;;;;;12.69;44.90;100876.09;5024647;27;97478;-73
2021/10/02 10:23:00;;;;;;;1999.90;999.90;;;;;;;12.72;45.33;100878.81;5018617;27;97329;-73
2021/10/02 10:25:28;;;;;;;1999.90;999.90;;;;;;;12.69;45.28;100876.97;5022492;28;97770;-72
2021/10/02 10:27:59;;;;;;;1999.90;999.90;;;;;;;12.69;45.20;100873.44;5021551;27;97655;-73
2021/10/02 10:30:29;;;;;;;1999.90;999.90;;;;;;;12.69;45.41;100866.28;5021523;27;99470;-74
2021/10/02 10:33:01;;;;;;;1999.90;999.90;;;;;;;12.70;45.38;100861.88;5021648;28;97524;-73
2021/10/02 10:35:32;;;;;;;1999.90;999.90;;;;;;;12.67;45.46;100854.72;5017614;27;97802;-75
2021/10/02 10:38:07;;;;;;;1999.90;999.90;;;;;;;12.69;44.93;100860.09;5020080;27;98049;-74
2021/10/02 10:40:35;;;;;;;1999.90;999.90;;;;;;;12.69;45.36;100855.63;5018820;28;99491;-71
2021/10/02 10:43:04;;;;;;;1999.90;999.90;;;;;;;12.70;45.40;100851.19;5021879;27;97296;-73
2021/10/02 10:45:34;;;;;;;1999.90;999.90;;;;;;;12.68;45.33;100842.25;5002240;27;97031;-72
2021/10/02 10:48:02;;;;;;;1999.90;999.90;;;;;;;12.69;45.42;100852.94;5009426;27;99287;-71
2021/10/02 10:50:32;;;;;;;1999.90;999.90;;;;;;;12.69;45.49;100839.59;5013209;28;98722;-72
2021/10/02 10:53:00;;;;;;;1999.90;999.90;;;;;;;12.72;45.41;100845.00;5019751;27;97589;-72
2021/10/02 10:55:28;;;;;;;1999.90;999.90;;;;;;;12.77;45.28;100847.72;5019642;28;98713;-72
2021/10/02 10:57:58;;;;;;;1999.90;999.90;;;;;;;12.82;45.43;100830.00;5022714;27;97883;-75
2021/10/02 11:00:41;;;;;;;1999.90;999.90;;;;;;;12.90;45.50;100820.28;5019906;28;99509;-72
2021/10/02 11:03:10;;;;;;;1999.90;999.90;;;;;;;13.01;45.18;100821.34;5019305;27;97097;-72
2021/10/02 11:05:52;;;;;;;1999.90;999.90;;;;;;;13.07;45.23;100825.00;5004830;28;97670;-72
2021/10/02 11:08:21;;;;;;;1999.90;999.90;;;;;;;13.12;45.01;100836.63;5026678;27;99539;-72
2021/10/02 11:10:52;;;;;;;1999.90;999.90;;;;;;;13.13;44.83;100826.81;4999861;28;99610;-72
2021/10/02 11:13:22;;;;;;;1999.90;999.90;;;;;;;13.14;44.93;100829.53;4988698;28;97439;-73
2021/10/02 11:15:51;;;;;;;1999.90;999.90;;;;;;;13.19;44.90;100816.22;4999913;27;97843;-72
2021/10/02 11:18:40;;;;;;;1999.90;999.90;;;;;;;13.25;44.74;100821.63;5015796;27;99330;-73
2021/10/02 11:21:12;;;;;;;1999.90;999.90;;;;;;;13.29;44.78;100839.50;5016128;27;100420;-72
2021/10/02 11:24:05;;;;;;;1999.90;999.90;;;;;;;13.28;43.97;100828.78;5018529;27;97432;-73
2021/10/02 11:26:42;;;;;;;1999.90;999.90;;;;;;;13.30;44.49;100822.56;5019171;27;97606;-71
2021/10/02 11:29:22;;;;;;;1999.90;999.90;;;;;;;13.30;44.33;100822.56;5017260;27;99724;-72
2021/10/02 11:31:51;;;;;;;1999.90;999.90;;;;;;;13.31;44.70;100836.84;5023367;27;98177;-72
2021/10/02 11:34:21;;;;;;;1999.90;999.90;;;;;;;13.31;44.79;100826.16;5023281;27;98858;-72
2021/10/02 11:36:57;;;;;;;1999.90;999.90;;;;;;;13.31;44.71;100827.06;5020698;27;97277;-72
2021/10/02 11:39:32;;;;;;;1999.90;999.90;;;;;;;13.33;44.38;100837.75;5022714;27;99539;-71
2021/10/02 11:42:03;;;;;;;1999.90;999.90;;;;;;;13.31;44.72;100827.06;5020427;28;98287;-71
2021/10/02 11:44:44;;;;;;;1999.90;999.90;;;;;;;13.28;44.23;100821.66;5004197;27;97614;-73
2021/10/02 11:47:32;;;;;;;1999.90;999.90;;;;;;;13.21;43.94;100818.91;5019260;27;97421;-73
2021/10/02 11:50:31;;;;;;;1999.90;999.90;;;;;;;13.25;44.38;100804.69;5019456;27;99217;-75
2021/10/02 11:53:20;;;;;;;1999.90;999.90;;;;;;;13.26;44.03;100817.19;5017624;27;99880;-71